Sunday, June 26, 2016
09:59 UTC
  |  Log In   |  Register Free
Airport Search:

Bishop International Airport
(KFNT)

FAA data valid effective May 26 2016 - Jul 21 2016 (unless otherwise noted).

 
 
 
 
 
 
 
 
 
 
 
 
 
 
Current Aviation Weather for KFNT

Weather Summary


The most recent METAR observation for FNT was updated at: 13:01 UTC
METAR for KFNT is not available. Closest METAR is for KRNP
KFNT  (most recent observation was updatred at 26:09 UTC)
260953Z 18008KT 10SM CLR 22/14 A3002 RMK AO2 SLP159 T02170144

KRNP  (17.4 nm SE)   (most recent observation was updated at 26:09 UTC)
260955Z AUTO 17007KT 10SM CLR 21/14 A3000 RMK AO2 T02120137

KD95  (21.6 nm SW)   (most recent observation was updated at 26:09 UTC)
260953Z AUTO 14004KT 10SM CLR 20/15 A3003 RMK AO2 T01980146

TAF for KFNT is not available.
KFNT
260523Z 2606/2706 18006KT P6SM SCT200 FM261100 18009KT P6SM SCT040 BKN200 FM261600 22013G19KT P6SM SCT050 BKN120 PROB30 2619/2623 3SM TSRA SCT025 OVC050CB FM262300 24007KT P6SM BKN100 FM270500 22004KT P6SM SKC

KPTK  (23.0 nm NW)   (most recent observation was updatred at 26:05 UTC)
260523Z 2606/2706 16005KT P6SM SCT200 FM261200 18009KT P6SM SCT040 BKN200 FM261600 21012G18KT P6SM SCT050 BKN150 PROB30 2619/2623 3SM TSRA SCT025 OVC050CB FM262300 23006KT P6SM BKN100 FM270500 22004KT P6SM SKC
GlobalAir.com is loading additional information.
 Current Weather at FNT
69.0 F° (20.6 C°)

South winds at 5.8 mph
Pressure:
30.04 in
Humidity:
66%
Wind:
South at 5.8 mph
Dew Point:
57.0 F° (13.9 C°)
Visibility:
10.00 mi
FNT NOAA Radar




Find All Airport Services Find A Hotel Find A Rental Car Find A Golf Course Find A Restaurant $100 Hamburger



Airport Weather Forecast for KFNT

Translated METAR for KFNT (0953 UTC)
METAR:
KFNT 260953Z 18008KT 10SM CLR 22/14 A3002 RMK AO2 SLP159 T02170144
Conditions at:
KFNT (Bishop Intl, MI) observed 0953 UTC 26 June 2016
Temperature:
22°C (71.6°F)
Dewpoint:
14°C (57.2°F) [RH = 60.5]
Pressure:
30.02 inches Hg (1016.6 mb)
pressure at sea level is 159 in Hg
Winds:
from the S (180 degrees) at 9.2 mph (8 knots: 4.1 m/s)
Visibility:
10 mile(s)
Ceiling:
at least 12,000 feet AGL
Clouds:
Clear below 12,000 feet AGL
Remarks:
site is automated and HAS a precipitation sensor

Translated TAF for KFNT (Bishop Intl, MI) (0523 UTC)
TAF text:
KFNT 260523Z 2606/2706 18006KT P6SM SCT200
Forecast period:
Sunday Jun 26 2016 06:00 UTC - Monday Jun 27 2016 06:00 UTC
Forecast type:
FROM: standard forecast or significant change
Winds:
from the S (180 degrees) at 6.9 mph (6 knots: 3.1 m/s)
Visibility:
6 or more mile(s) (9.7+ km)
Ceiling:
at least 12,000 feet AGL
Clouds:
Scattered Clouds at 20,000 feet AGL
Weather:
no significant weather observed at this time
TAF text:
FM261100 18009KT P6SM SCT040 BKN200
Forecast period:
Sunday Jun 26 2016 11:00 UTC - Sunday Jun 26 2016 16:00 UTC
Forecast type:
FROM: standard forecast or significant change
Winds:
from the S (180 degrees) at 10.4 mph (9 knots: 4.6 m/s)
Visibility:
6 or more mile(s) (9.7+ km)
Ceiling:
20,000 feet AGL
Clouds:
Scattered Clouds at 4,000 feet AGL
Broken Cloud Cover at 20,000 feet AGL
Weather:
no significant weather observed at this time
TAF text:
FM261600 22013G19KT P6SM SCT050 BKN120 PROB30 2619/2623 3SM TSRA SCT025 OVC050CB
Forecast period:
Sunday Jun 26 2016 16:00 UTC - Sunday Jun 26 2016 23:00 UTC
Forecast type:
FROM: standard forecast or significant change
Winds:
from the SW (220 degrees) at 15 mph (13 knots: 6.7 m/s)
gusting to 21.9 mph (19 knots: 9.8 m/s)
Visibility:
6 or more mile(s) (9.7+ km)3 mile(s) (4.8 km)
Ceiling:
12,000 feet AGL
at least 12,000 feet AGL
Clouds:
Scattered Clouds at 5,000 feet AGL
Broken Cloud Cover at 12,000 feet AGL
Scattered Clouds at 2,500 feet AGL
Overcast Skies
Weather:
Moderate Partial
TAF text:
FM262300 24007KT P6SM BKN100
Forecast period:
Sunday Jun 26 2016 23:00 UTC - Monday Jun 27 2016 05:00 UTC
Forecast type:
FROM: standard forecast or significant change
Winds:
from the WSW (240 degrees) at 8.1 mph (7 knots: 3.6 m/s)
Visibility:
6 or more mile(s) (9.7+ km)
Ceiling:
10,000 feet AGL
Clouds:
Broken Cloud Cover at 10,000 feet AGL
Weather:
no significant weather observed at this time
TAF text:
FM270500 22004KT P6SM SKC
Forecast period:
Monday Jun 27 2016 05:00 UTC - Monday Jun 27 2016 06:00 UTC
Forecast type:
FROM: standard forecast or significant change
Winds:
from the SW (220 degrees) at 4.6 mph (4 knots: 2.1 m/s)
Visibility:
6 or more mile(s) (9.7+ km)
Ceiling:
at least 12,000 feet AGL
Clouds:
Clear Skies
Weather:
no significant weather observed at this time
FBO's on the Field
FBO Company Facility Photos Services Transportation Aviation Fuel Prices: Prices include tax
Catering Weather Repair Courtesy Rental Type 100LL JetA JetA+ MOGAS 8087
 
Avflight Flint

This FBO has not yet been rated
FS:Avfuel
Last Updated: Jun-07
Login to update fuel prices
SS:
Contact Avflight FlintMore FBO Information
 
Add another FBO Facility Photos Catering Weather Repair Courtesy Rental Type 100LL JetA JetA+ MOGAS 8087
Services Transportation Aviation Fuel Prices: Prices include tax


model-print
model-print
model-print
model-print